Swaledale, Iowa
Current Conditions -  °F | °C
As of 8:53 AM on Monday 22 Dec 2014 (Local Time) from KMCW Reporting Station
Light Rain Light Rain  
Wind Chill: 26°   Ceiling: 200
Heat Index: 35°   Visibility: 1.5mi
Dew Point: 34°   Wind: 15mph
Humidity: 96%   Direction: 140°SE
Pressure: 29.65"   Gusts: NA
Location:  42.98°N, 93.32°W
Report Text: KMCW 221453Z AUTO 14013KT 1 1/2SM -RA BR OVC002 02/01 A2965 RMK AO2 SLP044 P0000 60000 T00170011 58006
Loading
Personal Weather Stations






























Interactive Weather Map New forecast layout! Learn more

10-Day Weather Forecast

Advertisements
Track Severe Weather on mobile